sensor_id;sensor_type;location;lat;lon;timestamp;pressure;altitude;pressure_sealevel;temperature;humidity
43741;BME280;29352;48.708;9.290;2023-02-17T00:00:26;98723.63;;;2.29;62.05
43741;BME280;29352;48.708;9.290;2023-02-17T00:02:57;98722.41;;;2.24;62.15
43741;BME280;29352;48.708;9.290;2023-02-17T00:05:25;98720.06;;;2.21;62.04
43741;BME280;29352;48.708;9.290;2023-02-17T00:07:52;98724.03;;;2.34;62.37
43741;BME280;29352;48.708;9.290;2023-02-17T00:10:18;98722.13;;;2.27;62.13
43741;BME280;29352;48.708;9.290;2023-02-17T00:12:43;98723.06;;;2.35;62.75
43741;BME280;29352;48.708;9.290;2023-02-17T00:15:09;98722.88;;;2.47;62.42
43741;BME280;29352;48.708;9.290;2023-02-17T00:17:35;98727.81;;;2.22;62.00
43741;BME280;29352;48.708;9.290;2023-02-17T00:20:00;98726.25;;;2.29;62.94
43741;BME280;29352;48.708;9.290;2023-02-17T00:22:26;98717.00;;;2.25;61.89
43741;BME280;29352;48.708;9.290;2023-02-17T00:24:51;98715.59;;;2.68;60.74
43741;BME280;29352;48.708;9.290;2023-02-17T00:27:17;98719.28;;;2.48;62.59
43741;BME280;29352;48.708;9.290;2023-02-17T00:29:43;98713.34;;;2.36;61.84
43741;BME280;29352;48.708;9.290;2023-02-17T00:32:09;98711.13;;;2.41;62.06
43741;BME280;29352;48.708;9.290;2023-02-17T00:34:35;98709.22;;;2.33;61.34
43741;BME280;29352;48.708;9.290;2023-02-17T00:37:01;98707.38;;;2.44;61.77
43741;BME280;29352;48.708;9.290;2023-02-17T00:39:27;98708.69;;;2.20;62.82
43741;BME280;29352;48.708;9.290;2023-02-17T00:41:53;98703.63;;;1.89;63.14
43741;BME280;29352;48.708;9.290;2023-02-17T00:44:20;98707.53;;;1.95;63.21
43741;BME280;29352;48.708;9.290;2023-02-17T00:46:48;98706.81;;;2.03;63.14
43741;BME280;29352;48.708;9.290;2023-02-17T00:49:16;98709.28;;;1.95;62.90
43741;BME280;29352;48.708;9.290;2023-02-17T00:51:45;98706.81;;;2.03;63.25
43741;BME280;29352;48.708;9.290;2023-02-17T00:54:11;98709.59;;;1.82;63.30
43741;BME280;29352;48.708;9.290;2023-02-17T00:56:38;98704.63;;;1.88;63.50
43741;BME280;29352;48.708;9.290;2023-02-17T00:59:04;98704.03;;;1.75;63.57
43741;BME280;29352;48.708;9.290;2023-02-17T01:01:30;98709.31;;;1.75;63.75
43741;BME280;29352;48.708;9.290;2023-02-17T01:03:57;98705.16;;;1.82;63.65
43741;BME280;29352;48.708;9.290;2023-02-17T01:06:27;98705.84;;;1.84;63.98
43741;BME280;29352;48.708;9.290;2023-02-17T01:08:54;98703.78;;;1.78;63.58
43741;BME280;29352;48.708;9.290;2023-02-17T01:11:23;98702.94;;;1.58;64.72
43741;BME280;29352;48.708;9.290;2023-02-17T01:13:51;98703.22;;;1.55;64.71
43741;BME280;29352;48.708;9.290;2023-02-17T01:16:23;98706.81;;;1.45;64.95
43741;BME280;29352;48.708;9.290;2023-02-17T01:18:54;98701.81;;;1.32;65.17
43741;BME280;29352;48.708;9.290;2023-02-17T01:21:25;98699.06;;;1.24;65.51
43741;BME280;29352;48.708;9.290;2023-02-17T01:23:55;98685.75;;;1.06;65.98
43741;BME280;29352;48.708;9.290;2023-02-17T01:26:26;98683.34;;;0.83;66.65
43741;BME280;29352;48.708;9.290;2023-02-17T01:28:53;98686.97;;;0.82;66.76
43741;BME280;29352;48.708;9.290;2023-02-17T01:31:20;98684.63;;;0.89;66.16
43741;BME280;29352;48.708;9.290;2023-02-17T01:33:47;98682.97;;;0.98;65.69
43741;BME280;29352;48.708;9.290;2023-02-17T01:36:16;98675.91;;;1.08;65.45
43741;BME280;29352;48.708;9.290;2023-02-17T01:38:43;98669.03;;;1.16;64.93
43741;BME280;29352;48.708;9.290;2023-02-17T01:41:12;98667.38;;;1.15;64.73
43741;BME280;29352;48.708;9.290;2023-02-17T01:43:38;98658.78;;;1.33;64.48
43741;BME280;29352;48.708;9.290;2023-02-17T01:46:05;98661.97;;;1.17;64.75
43741;BME280;29352;48.708;9.290;2023-02-17T01:48:39;98657.25;;;1.21;64.40
43741;BME280;29352;48.708;9.290;2023-02-17T01:51:23;98655.19;;;1.24;64.37
43741;BME280;29352;48.708;9.290;2023-02-17T01:54:03;98654.47;;;1.32;64.71
43741;BME280;29352;48.708;9.290;2023-02-17T01:56:36;98660.84;;;1.58;63.86
43741;BME280;29352;48.708;9.290;2023-02-17T01:59:10;98653.50;;;1.62;63.54
43741;BME280;29352;48.708;9.290;2023-02-17T02:01:41;98655.31;;;1.61;63.50
43741;BME280;29352;48.708;9.290;2023-02-17T02:04:09;98646.88;;;1.58;63.56
43741;BME280;29352;48.708;9.290;2023-02-17T02:06:39;98639.78;;;1.78;63.41
43741;BME280;29352;48.708;9.290;2023-02-17T02:09:23;98644.19;;;1.77;63.15
43741;BME280;29352;48.708;9.290;2023-02-17T02:11:55;98639.22;;;1.84;63.22
43741;BME280;29352;48.708;9.290;2023-02-17T02:14:21;98643.78;;;1.92;62.84
43741;BME280;29352;48.708;9.290;2023-02-17T02:17:05;98648.06;;;1.73;63.39
43741;BME280;29352;48.708;9.290;2023-02-17T02:35:05;98645.53;;;2.01;63.18
43741;BME280;29352;48.708;9.290;2023-02-17T02:37:55;98645.25;;;2.04;63.13
43741;BME280;29352;48.708;9.290;2023-02-17T02:40:33;98640.84;;;1.95;63.25
43741;BME280;29352;48.708;9.290;2023-02-17T02:43:03;98640.81;;;2.04;63.02
43741;BME280;29352;48.708;9.290;2023-02-17T02:45:30;98632.66;;;1.98;63.16
43741;BME280;29352;48.708;9.290;2023-02-17T02:47:57;98628.56;;;1.85;63.60
43741;BME280;29352;48.708;9.290;2023-02-17T02:50:54;98633.97;;;1.74;64.50
43741;BME280;29352;48.708;9.290;2023-02-17T03:03:15;98624.00;;;1.68;64.68
43741;BME280;29352;48.708;9.290;2023-02-17T03:06:06;98625.81;;;1.68;64.11
43741;BME280;29352;48.708;9.290;2023-02-17T03:08:56;98624.66;;;1.89;64.13
43741;BME280;29352;48.708;9.290;2023-02-17T03:11:28;98617.88;;;1.77;64.66
43741;BME280;29352;48.708;9.290;2023-02-17T03:14:06;98611.75;;;1.96;64.33
43741;BME280;29352;48.708;9.290;2023-02-17T03:16:35;98609.72;;;2.18;63.06
43741;BME280;29352;48.708;9.290;2023-02-17T03:19:02;98607.97;;;2.36;62.48
43741;BME280;29352;48.708;9.290;2023-02-17T03:21:41;98601.59;;;2.38;62.77
43741;BME280;29352;48.708;9.290;2023-02-17T03:24:13;98593.31;;;2.33;62.24
43741;BME280;29352;48.708;9.290;2023-02-17T03:26:39;98594.59;;;2.75;61.28
43741;BME280;29352;48.708;9.290;2023-02-17T03:29:04;98602.84;;;2.07;62.91
43741;BME280;29352;48.708;9.290;2023-02-17T03:31:30;98594.88;;;2.54;62.01
43741;BME280;29352;48.708;9.290;2023-02-17T03:33:56;98597.50;;;1.79;63.39
43741;BME280;29352;48.708;9.290;2023-02-17T03:36:22;98593.34;;;1.86;63.76
43741;BME280;29352;48.708;9.290;2023-02-17T03:38:47;98602.16;;;1.48;64.92
43741;BME280;29352;48.708;9.290;2023-02-17T03:41:13;98604.03;;;1.75;64.48
43741;BME280;29352;48.708;9.290;2023-02-17T03:43:38;98609.97;;;1.87;64.77
43741;BME280;29352;48.708;9.290;2023-02-17T03:46:03;98611.22;;;1.93;64.49
43741;BME280;29352;48.708;9.290;2023-02-17T03:48:29;98607.88;;;1.90;64.56
43741;BME280;29352;48.708;9.290;2023-02-17T03:50:54;98607.00;;;2.09;64.40
43741;BME280;29352;48.708;9.290;2023-02-17T03:53:20;98609.56;;;2.19;64.09
43741;BME280;29352;48.708;9.290;2023-02-17T03:55:45;98613.66;;;2.04;64.18
43741;BME280;29352;48.708;9.290;2023-02-17T03:58:11;98613.59;;;2.23;63.92
43741;BME280;29352;48.708;9.290;2023-02-17T04:00:36;98611.75;;;1.96;64.50
43741;BME280;29352;48.708;9.290;2023-02-17T04:03:02;98608.97;;;1.98;64.65
43741;BME280;29352;48.708;9.290;2023-02-17T04:05:27;98608.69;;;2.01;64.57
43741;BME280;29352;48.708;9.290;2023-02-17T04:07:53;98609.91;;;2.06;64.54
43741;BME280;29352;48.708;9.290;2023-02-17T04:10:18;98611.22;;;1.93;64.78
43741;BME280;29352;48.708;9.290;2023-02-17T04:12:44;98615.31;;;2.05;64.65
43741;BME280;29352;48.708;9.290;2023-02-17T04:15:09;98613.75;;;1.65;66.16
43741;BME280;29352;48.708;9.290;2023-02-17T04:17:36;98615.31;;;2.05;64.80
43741;BME280;29352;48.708;9.290;2023-02-17T04:20:03;98611.78;;;1.86;65.61
43741;BME280;29352;48.708;9.290;2023-02-17T04:22:30;98616.28;;;2.04;65.61
43741;BME280;29352;48.708;9.290;2023-02-17T04:24:55;98622.66;;;2.01;65.63
43741;BME280;29352;48.708;9.290;2023-02-17T04:27:21;98622.84;;;1.80;66.41
43741;BME280;29352;48.708;9.290;2023-02-17T04:29:46;98631.91;;;1.68;66.91
43741;BME280;29352;48.708;9.290;2023-02-17T04:32:11;98631.19;;;1.76;67.05
43741;BME280;29352;48.708;9.290;2023-02-17T04:34:37;98630.19;;;1.77;67.05
43741;BME280;29352;48.708;9.290;2023-02-17T04:37:02;98624.53;;;1.72;67.11
43741;BME280;29352;48.708;9.290;2023-02-17T04:39:28;98622.03;;;1.89;66.73
43741;BME280;29352;48.708;9.290;2023-02-17T04:41:53;98623.28;;;1.76;66.58
43741;BME280;29352;48.708;9.290;2023-02-17T04:44:19;98620.94;;;1.63;67.17
43741;BME280;29352;48.708;9.290;2023-02-17T04:46:44;98620.81;;;1.74;66.99
43741;BME280;29352;48.708;9.290;2023-02-17T04:49:10;98615.94;;;1.70;67.42
43741;BME280;29352;48.708;9.290;2023-02-17T04:51:35;98614.59;;;1.56;67.74
43741;BME280;29352;48.708;9.290;2023-02-17T04:54:01;98611.69;;;1.49;67.96
43741;BME280;29352;48.708;9.290;2023-02-17T04:56:26;98606.44;;;1.39;67.92
43741;BME280;29352;48.708;9.290;2023-02-17T04:58:52;98610.19;;;1.47;68.44
43741;BME280;29352;48.708;9.290;2023-02-17T05:01:17;98608.78;;;1.42;68.40
43741;BME280;29352;48.708;9.290;2023-02-17T05:03:43;98598.00;;;1.36;68.43
43741;BME280;29352;48.708;9.290;2023-02-17T05:06:08;98595.25;;;1.37;68.46
43741;BME280;29352;48.708;9.290;2023-02-17T05:08:33;98599.41;;;1.21;68.79
43741;BME280;29352;48.708;9.290;2023-02-17T05:10:59;98597.31;;;1.14;69.15
43741;BME280;29352;48.708;9.290;2023-02-17T05:13:24;98594.00;;;1.22;69.15
43741;BME280;29352;48.708;9.290;2023-02-17T05:15:51;98588.19;;;1.28;69.21
43741;BME280;29352;48.708;9.290;2023-02-17T05:18:17;98591.38;;;1.22;69.48
43741;BME280;29352;48.708;9.290;2023-02-17T05:20:42;98586.94;;;1.32;69.60
43741;BME280;29352;48.708;9.290;2023-02-17T05:23:08;98592.22;;;1.13;70.29
43741;BME280;29352;48.708;9.290;2023-02-17T05:25:33;98591.25;;;1.14;70.36
43741;BME280;29352;48.708;9.290;2023-02-17T05:27:59;98589.72;;;1.21;70.43
43741;BME280;29352;48.708;9.290;2023-02-17T05:30:24;98588.06;;;1.20;70.58
43741;BME280;29352;48.708;9.290;2023-02-17T05:32:50;98587.50;;;1.16;70.65
43741;BME280;29352;48.708;9.290;2023-02-17T05:35:15;98586.94;;;1.32;70.27
43741;BME280;29352;48.708;9.290;2023-02-17T05:37:41;98588.22;;;0.99;71.32
43741;BME280;29352;48.708;9.290;2023-02-17T05:40:07;98590.97;;;0.98;71.98
43741;BME280;29352;48.708;9.290;2023-02-17T05:42:33;98594.00;;;0.93;71.88
43741;BME280;29352;48.708;9.290;2023-02-17T05:44:58;98589.72;;;0.92;72.15
43741;BME280;29352;48.708;9.290;2023-02-17T05:47:23;98599.41;;;1.11;71.88
43741;BME280;29352;48.708;9.290;2023-02-17T05:49:49;98595.53;;;1.15;71.84
43741;BME280;29352;48.708;9.290;2023-02-17T05:52:14;98603.97;;;1.18;71.83
43741;BME280;29352;48.708;9.290;2023-02-17T05:54:42;98596.06;;;1.18;71.85
43741;BME280;29352;48.708;9.290;2023-02-17T05:57:08;98602.31;;;1.17;71.58
43741;BME280;29352;48.708;9.290;2023-02-17T05:59:33;98614.75;;;1.25;71.50
43741;BME280;29352;48.708;9.290;2023-02-17T06:01:59;98608.63;;;1.63;70.55
43741;BME280;29352;48.708;9.290;2023-02-17T06:04:24;98612.66;;;1.58;70.77
43741;BME280;29352;48.708;9.290;2023-02-17T06:06:49;98616.78;;;1.70;70.35
43741;BME280;29352;48.708;9.290;2023-02-17T06:09:15;98614.28;;;1.69;70.19
43741;BME280;29352;48.708;9.290;2023-02-17T06:11:40;98619.13;;;1.73;70.13
43741;BME280;29352;48.708;9.290;2023-02-17T06:14:06;98612.19;;;1.92;69.95
43741;BME280;29352;48.708;9.290;2023-02-17T06:16:31;98620.66;;;1.85;69.88
43741;BME280;29352;48.708;9.290;2023-02-17T06:18:56;98625.19;;;1.93;69.49
43741;BME280;29352;48.708;9.290;2023-02-17T06:21:24;98629.09;;;1.89;69.66
43741;BME280;29352;48.708;9.290;2023-02-17T06:23:50;98629.78;;;1.91;70.05
43741;BME280;29352;48.708;9.290;2023-02-17T06:26:15;98630.84;;;1.98;70.20
43741;BME280;29352;48.708;9.290;2023-02-17T06:28:42;98635.56;;;1.95;70.62
43741;BME280;29352;48.708;9.290;2023-02-17T06:31:08;98637.06;;;2.07;70.37
43741;BME280;29352;48.708;9.290;2023-02-17T06:33:34;98629.50;;;1.94;70.98
43741;BME280;29352;48.708;9.290;2023-02-17T06:35:59;98639.69;;;2.17;70.51
43741;BME280;29352;48.708;9.290;2023-02-17T06:38:25;98641.06;;;2.11;70.39
43741;BME280;29352;48.708;9.290;2023-02-17T06:40:50;98636.97;;;1.99;71.04
43741;BME280;29352;48.708;9.290;2023-02-17T06:43:16;98644.44;;;2.03;70.47
43741;BME280;29352;48.708;9.290;2023-02-17T06:45:41;98649.06;;;2.19;70.36
43741;BME280;29352;48.708;9.290;2023-02-17T06:48:07;98648.84;;;2.12;70.18
43741;BME280;29352;48.708;9.290;2023-02-17T06:50:32;98653.16;;;2.41;69.60
43741;BME280;29352;48.708;9.290;2023-02-17T06:52:58;98657.91;;;2.37;70.02
43741;BME280;29352;48.708;9.290;2023-02-17T06:55:23;98655.31;;;2.55;69.37
43741;BME280;29352;48.708;9.290;2023-02-17T06:57:48;98653.13;;;2.51;69.26
43741;BME280;29352;48.708;9.290;2023-02-17T07:00:14;98653.13;;;2.51;69.64
43741;BME280;29352;48.708;9.290;2023-02-17T07:02:40;98660.25;;;2.68;69.38
43741;BME280;29352;48.708;9.290;2023-02-17T07:05:06;98656.72;;;2.95;68.16
43741;BME280;29352;48.708;9.290;2023-02-17T07:07:32;98661.91;;;2.69;68.83
43741;BME280;29352;48.708;9.290;2023-02-17T07:09:58;98659.75;;;2.55;69.49
43741;BME280;29352;48.708;9.290;2023-02-17T07:12:24;98664.72;;;2.85;68.57
43741;BME280;29352;48.708;9.290;2023-02-17T07:14:51;98662.91;;;2.86;68.25
43741;BME280;29352;48.708;9.290;2023-02-17T07:17:16;98671.75;;;2.67;68.87
43741;BME280;29352;48.708;9.290;2023-02-17T07:19:41;98665.53;;;2.68;69.11
43741;BME280;29352;48.708;9.290;2023-02-17T07:22:07;98673.13;;;2.71;68.96
43741;BME280;29352;48.708;9.290;2023-02-17T07:24:32;98668.31;;;2.84;68.73
43741;BME280;29352;48.708;9.290;2023-02-17T07:26:58;98675.31;;;2.76;68.84
43741;BME280;29352;48.708;9.290;2023-02-17T07:29:25;98670.25;;;2.92;68.63
43741;BME280;29352;48.708;9.290;2023-02-17T07:31:51;98677.63;;;2.89;68.64
43741;BME280;29352;48.708;9.290;2023-02-17T07:34:17;98675.19;;;2.95;68.36
43741;BME280;29352;48.708;9.290;2023-02-17T07:36:42;98676.72;;;3.16;67.95
43741;BME280;29352;48.708;9.290;2023-02-17T07:39:08;98676.94;;;3.22;67.75
43741;BME280;29352;48.708;9.290;2023-02-17T07:41:33;98682.00;;;3.16;67.97
43741;BME280;29352;48.708;9.290;2023-02-17T07:43:59;98673.34;;;3.23;67.25
43741;BME280;29352;48.708;9.290;2023-02-17T07:46:26;98674.44;;;3.30;67.52
43741;BME280;29352;48.708;9.290;2023-02-17T07:48:51;98678.44;;;3.35;67.42
43741;BME280;29352;48.708;9.290;2023-02-17T07:51:20;98662.13;;;3.21;68.08
43741;BME280;29352;48.708;9.290;2023-02-17T07:53:47;98664.31;;;3.44;67.51
43741;BME280;29352;48.708;9.290;2023-02-17T07:56:16;98681.22;;;3.51;67.62
43741;BME280;29352;48.708;9.290;2023-02-17T07:58:44;98684.34;;;3.72;67.24
43741;BME280;29352;48.708;9.290;2023-02-17T08:01:19;98689.44;;;3.48;68.16
43741;BME280;29352;48.708;9.290;2023-02-17T08:03:48;98696.34;;;3.67;68.09
43741;BME280;29352;48.708;9.290;2023-02-17T08:06:17;98684.28;;;3.64;68.28
43741;BME280;29352;48.708;9.290;2023-02-17T08:08:44;98687.84;;;3.55;68.77
43741;BME280;29352;48.708;9.290;2023-02-17T08:11:30;98692.09;;;3.48;69.21
43741;BME280;29352;48.708;9.290;2023-02-17T08:14:15;98695.81;;;3.63;69.04
43741;BME280;29352;48.708;9.290;2023-02-17T08:16:40;98691.31;;;3.55;69.73
43741;BME280;29352;48.708;9.290;2023-02-17T08:19:06;98694.63;;;3.75;69.41
43741;BME280;29352;48.708;9.290;2023-02-17T08:21:32;98693.94;;;3.73;69.79
43741;BME280;29352;48.708;9.290;2023-02-17T08:23:58;98689.41;;;3.66;70.06
43741;BME280;29352;48.708;9.290;2023-02-17T08:26:24;98687.44;;;3.86;69.70
43741;BME280;29352;48.708;9.290;2023-02-17T08:28:50;98685.50;;;4.22;69.37
43741;BME280;29352;48.708;9.290;2023-02-17T08:31:28;98683.19;;;4.95;67.88
43741;BME280;29352;48.708;9.290;2023-02-17T08:34:05;98678.72;;;4.96;66.82
43741;BME280;29352;48.708;9.290;2023-02-17T08:36:31;98692.34;;;6.40;64.09
43741;BME280;29352;48.708;9.290;2023-02-17T08:38:58;98691.50;;;6.31;64.07
43741;BME280;29352;48.708;9.290;2023-02-17T08:41:33;98686.03;;;6.49;63.41
43741;BME280;29352;48.708;9.290;2023-02-17T08:44:06;98684.34;;;6.56;63.26
43741;BME280;29352;48.708;9.290;2023-02-17T08:46:34;98684.09;;;6.35;63.81
43741;BME280;29352;48.708;9.290;2023-02-17T08:49:03;98678.47;;;6.13;64.32
43741;BME280;29352;48.708;9.290;2023-02-17T08:51:29;98680.03;;;5.83;64.96
43741;BME280;29352;48.708;9.290;2023-02-17T08:53:57;98687.44;;;6.12;64.61
43741;BME280;29352;48.708;9.290;2023-02-17T08:56:27;98684.09;;;5.37;66.21
43741;BME280;29352;48.708;9.290;2023-02-17T08:58:54;98676.34;;;5.35;66.56
43741;BME280;29352;48.708;9.290;2023-02-17T09:01:21;98681.13;;;5.40;66.54
43741;BME280;29352;48.708;9.290;2023-02-17T09:03:49;98688.78;;;5.92;65.89
43741;BME280;29352;48.708;9.290;2023-02-17T09:06:15;98682.63;;;6.00;65.00
43741;BME280;29352;48.708;9.290;2023-02-17T09:08:43;98689.28;;;5.87;65.45
43741;BME280;29352;48.708;9.290;2023-02-17T09:11:09;98684.31;;;5.60;66.10
43741;BME280;29352;48.708;9.290;2023-02-17T09:13:36;98691.56;;;5.25;66.98
43741;BME280;29352;48.708;9.290;2023-02-17T09:16:02;98675.19;;;5.38;66.93
43741;BME280;29352;48.708;9.290;2023-02-17T09:18:28;98675.03;;;5.39;67.05
43741;BME280;29352;48.708;9.290;2023-02-17T09:20:54;98675.19;;;5.54;67.01
43741;BME280;29352;48.708;9.290;2023-02-17T09:23:19;98675.81;;;5.15;67.85
43741;BME280;29352;48.708;9.290;2023-02-17T09:25:45;98668.16;;;4.88;68.78
43741;BME280;29352;48.708;9.290;2023-02-17T09:28:10;98678.72;;;4.88;68.89
43741;BME280;29352;48.708;9.290;2023-02-17T09:30:38;98682.56;;;5.02;68.74
43741;BME280;29352;48.708;9.290;2023-02-17T09:33:04;98674.31;;;5.13;68.80
43741;BME280;29352;48.708;9.290;2023-02-17T09:35:30;98678.09;;;4.94;69.08
43741;BME280;29352;48.708;9.290;2023-02-17T09:37:57;98667.94;;;4.73;69.65
43741;BME280;29352;48.708;9.290;2023-02-17T09:40:35;98672.94;;;4.92;69.38
43741;BME280;29352;48.708;9.290;2023-02-17T09:43:26;98688.50;;;4.95;69.10
43741;BME280;29352;48.708;9.290;2023-02-17T09:46:05;98679.03;;;4.85;69.69
43741;BME280;29352;48.708;9.290;2023-02-17T09:48:38;98692.88;;;4.70;70.10
43741;BME280;29352;48.708;9.290;2023-02-17T09:51:18;98700.31;;;4.75;70.20
43741;BME280;29352;48.708;9.290;2023-02-17T09:54:01;98702.56;;;4.54;70.58
43741;BME280;29352;48.708;9.290;2023-02-17T09:56:39;98714.03;;;4.70;70.14
43741;BME280;29352;48.708;9.290;2023-02-17T09:59:19;98715.84;;;5.20;69.21
43741;BME280;29352;48.708;9.290;2023-02-17T10:01:51;98718.59;;;5.03;69.86
43741;BME280;29352;48.708;9.290;2023-02-17T10:04:25;98710.22;;;5.15;69.51
43741;BME280;29352;48.708;9.290;2023-02-17T10:07:06;98717.47;;;5.13;69.75
43741;BME280;29352;48.708;9.290;2023-02-17T10:09:47;98718.78;;;5.09;69.80
43741;BME280;29352;48.708;9.290;2023-02-17T10:12:21;98724.47;;;5.31;69.19
43741;BME280;29352;48.708;9.290;2023-02-17T10:14:56;98707.88;;;5.12;69.49
43741;BME280;29352;48.708;9.290;2023-02-17T10:23:12;98694.94;;;7.27;65.18
43741;BME280;29352;48.708;9.290;2023-02-17T10:28:52;98722.78;;;6.60;66.11
43741;BME280;29352;48.708;9.290;2023-02-17T10:34:37;98703.94;;;6.39;66.93
43741;BME280;29352;48.708;9.290;2023-02-17T10:37:29;98714.66;;;6.54;67.08
43741;BME280;29352;48.708;9.290;2023-02-17T10:40:02;98707.94;;;6.35;67.22
43741;BME280;29352;48.708;9.290;2023-02-17T10:42:38;98704.25;;;6.44;67.14
43741;BME280;29352;48.708;9.290;2023-02-17T10:45:18;98712.59;;;6.16;67.42
43741;BME280;29352;48.708;9.290;2023-02-17T10:47:57;98703.34;;;6.68;67.08
43741;BME280;29352;48.708;9.290;2023-02-17T10:50:30;98695.63;;;7.21;65.31
43741;BME280;29352;48.708;9.290;2023-02-17T10:52:56;98689.41;;;7.37;64.84
43741;BME280;29352;48.708;9.290;2023-02-17T10:55:40;98689.41;;;7.59;64.92
43741;BME280;29352;48.708;9.290;2023-02-17T11:01:20;98667.94;;;7.46;65.28
43741;BME280;29352;48.708;9.290;2023-02-17T11:03:58;98673.38;;;6.99;65.89
43741;BME280;29352;48.708;9.290;2023-02-17T11:06:26;98669.28;;;7.42;65.57
43741;BME280;29352;48.708;9.290;2023-02-17T11:08:59;98668.84;;;7.07;65.66
43741;BME280;29352;48.708;9.290;2023-02-17T11:11:30;98683.72;;;7.17;65.76
43741;BME280;29352;48.708;9.290;2023-02-17T11:14:20;98688.00;;;7.26;65.36
43741;BME280;29352;48.708;9.290;2023-02-17T11:17:25;98690.47;;;6.96;66.39
43741;BME280;29352;48.708;9.290;2023-02-17T11:20:04;98684.91;;;6.83;66.75
43741;BME280;29352;48.708;9.290;2023-02-17T11:23:21;98686.59;;;6.68;67.36
43741;BME280;29352;48.708;9.290;2023-02-17T11:26:09;98670.06;;;6.97;67.07
43741;BME280;29352;48.708;9.290;2023-02-17T11:28:41;98666.28;;;7.22;66.27
43741;BME280;29352;48.708;9.290;2023-02-17T11:31:30;98665.34;;;7.15;66.44
43741;BME280;29352;48.708;9.290;2023-02-17T11:33:55;98666.59;;;6.96;66.89
43741;BME280;29352;48.708;9.290;2023-02-17T11:36:28;98658.38;;;7.37;65.97
43741;BME280;29352;48.708;9.290;2023-02-17T11:38:56;98651.41;;;7.36;65.94
43741;BME280;29352;48.708;9.290;2023-02-17T11:41:23;98640.00;;;7.27;66.17
43741;BME280;29352;48.708;9.290;2023-02-17T11:43:58;98644.66;;;7.02;66.98
43741;BME280;29352;48.708;9.290;2023-02-17T11:46:34;98639.19;;;7.50;66.54
43741;BME280;29352;48.708;9.290;2023-02-17T11:55:15;98658.72;;;6.72;69.02
43741;BME280;29352;48.708;9.290;2023-02-17T12:03:03;98648.22;;;6.86;68.71
43741;BME280;29352;48.708;9.290;2023-02-17T12:08:54;98658.31;;;6.52;69.28
43741;BME280;29352;48.708;9.290;2023-02-17T12:11:54;98660.53;;;6.79;68.96
43741;BME280;29352;48.708;9.290;2023-02-17T12:14:47;98659.38;;;6.82;68.55
43741;BME280;29352;48.708;9.290;2023-02-17T12:20:32;98665.94;;;7.25;67.81
43741;BME280;29352;48.708;9.290;2023-02-17T12:26:02;98662.38;;;7.10;68.21
43741;BME280;29352;48.708;9.290;2023-02-17T12:34:40;98668.72;;;6.61;69.50
43741;BME280;29352;48.708;9.290;2023-02-17T12:37:20;98665.72;;;6.64;69.46
43741;BME280;29352;48.708;9.290;2023-02-17T12:39:57;98670.88;;;6.66;69.67
43741;BME280;29352;48.708;9.290;2023-02-17T12:42:42;98670.59;;;6.45;69.87
43741;BME280;29352;48.708;9.290;2023-02-17T12:45:22;98666.06;;;6.70;69.29
43741;BME280;29352;48.708;9.290;2023-02-17T12:48:09;98666.09;;;6.53;69.89
43741;BME280;29352;48.708;9.290;2023-02-17T12:51:17;98660.97;;;6.52;70.36
43741;BME280;29352;48.708;9.290;2023-02-17T12:56:39;98657.91;;;6.32;70.50
43741;BME280;29352;48.708;9.290;2023-02-17T12:59:25;98652.38;;;6.50;70.08
43741;BME280;29352;48.708;9.290;2023-02-17T13:04:26;98651.59;;;6.72;69.61
43741;BME280;29352;48.708;9.290;2023-02-17T13:07:38;98646.06;;;6.90;69.13
43741;BME280;29352;48.708;9.290;2023-02-17T13:10:15;98648.41;;;6.85;68.97
43741;BME280;29352;48.708;9.290;2023-02-17T13:13:01;98651.53;;;6.88;69.44
43741;BME280;29352;48.708;9.290;2023-02-17T13:15:42;98655.78;;;6.67;69.24
43741;BME280;29352;48.708;9.290;2023-02-17T13:18:29;98657.09;;;6.23;70.56
43741;BME280;29352;48.708;9.290;2023-02-17T13:26:31;98647.84;;;6.58;69.88
43741;BME280;29352;48.708;9.290;2023-02-17T13:31:53;98641.63;;;6.43;70.46
43741;BME280;29352;48.708;9.290;2023-02-17T13:34:40;98640.94;;;6.41;70.60
43741;BME280;29352;48.708;9.290;2023-02-17T13:40:01;98649.06;;;6.48;70.11
43741;BME280;29352;48.708;9.290;2023-02-17T13:42:50;98642.53;;;6.58;70.16
43741;BME280;29352;48.708;9.290;2023-02-17T13:45:27;98641.16;;;6.71;70.05
43741;BME280;29352;48.708;9.290;2023-02-17T13:48:10;98638.28;;;6.49;70.37
43741;BME280;29352;48.708;9.290;2023-02-17T13:50:48;98641.63;;;6.82;69.78
43741;BME280;29352;48.708;9.290;2023-02-17T13:53:28;98638.50;;;6.71;70.18
43741;BME280;29352;48.708;9.290;2023-02-17T13:56:02;98641.09;;;6.48;70.41
43741;BME280;29352;48.708;9.290;2023-02-17T13:58:33;98642.19;;;6.61;70.69
43741;BME280;29352;48.708;9.290;2023-02-17T14:01:05;98624.03;;;6.50;70.71
43741;BME280;29352;48.708;9.290;2023-02-17T14:03:46;98632.97;;;6.49;70.83
43741;BME280;29352;48.708;9.290;2023-02-17T14:06:28;98630.50;;;6.87;70.42
43741;BME280;29352;48.708;9.290;2023-02-17T14:09:11;98624.09;;;6.73;70.60
43741;BME280;29352;48.708;9.290;2023-02-17T14:12:02;98631.94;;;6.58;71.31
43741;BME280;29352;48.708;9.290;2023-02-17T14:14:33;98626.28;;;6.61;71.18
43741;BME280;29352;48.708;9.290;2023-02-17T14:17:05;98620.97;;;6.61;71.45
43741;BME280;29352;48.708;9.290;2023-02-17T14:19:51;98609.66;;;6.76;71.05
43741;BME280;29352;48.708;9.290;2023-02-17T14:22:29;98617.63;;;6.68;71.13
43741;BME280;29352;48.708;9.290;2023-02-17T14:25:01;98622.31;;;6.57;71.25
43741;BME280;29352;48.708;9.290;2023-02-17T14:30:06;98613.13;;;6.37;71.82
43741;BME280;29352;48.708;9.290;2023-02-17T14:32:36;98619.41;;;6.44;71.80
43741;BME280;29352;48.708;9.290;2023-02-17T14:35:19;98630.16;;;6.51;71.55
43741;BME280;29352;48.708;9.290;2023-02-17T14:37:47;98625.47;;;6.61;71.19
43741;BME280;29352;48.708;9.290;2023-02-17T14:40:23;98624.91;;;6.74;70.85
43741;BME280;29352;48.708;9.290;2023-02-17T14:42:50;98622.59;;;6.71;71.11
43741;BME280;29352;48.708;9.290;2023-02-17T14:45:17;98622.28;;;6.97;70.27
43741;BME280;29352;48.708;9.290;2023-02-17T14:47:44;98605.13;;;6.45;71.26
43741;BME280;29352;48.708;9.290;2023-02-17T14:50:10;98618.63;;;6.75;70.80
43741;BME280;29352;48.708;9.290;2023-02-17T14:52:45;98620.50;;;6.58;71.45
43741;BME280;29352;48.708;9.290;2023-02-17T14:55:37;98613.88;;;6.54;71.04